createdAt,value
2016-03-11T00:00:37.881Z,1018.95
2016-03-11T00:01:37.945Z,1018.97
2016-03-11T00:02:37.995Z,1018.99
2016-03-11T00:03:38.045Z,1019
2016-03-11T00:04:38.094Z,1018.97
2016-03-11T00:05:38.145Z,1018.98
2016-03-11T00:06:38.194Z,1019.02
2016-03-11T00:07:38.242Z,1019.04
2016-03-11T00:08:38.292Z,1019.01
2016-03-11T00:09:38.358Z,1019.01
2016-03-11T00:10:38.408Z,1018.97
2016-03-11T00:11:38.442Z,1019
2016-03-11T00:12:38.507Z,1018.97
2016-03-11T00:13:38.556Z,1018.97
2016-03-11T00:14:38.606Z,1018.98
2016-03-11T00:15:38.656Z,1018.98
2016-03-11T00:16:38.705Z,1018.99
2016-03-11T00:17:38.755Z,1018.97
2016-03-11T00:18:38.804Z,1019
2016-03-11T00:19:38.854Z,1019.04
2016-03-11T00:20:38.903Z,1019.06
2016-03-11T00:21:38.969Z,1019.03
2016-03-11T00:22:39.002Z,1019.01
2016-03-11T00:23:39.068Z,1019.04
2016-03-11T00:24:39.118Z,1019.05
2016-03-11T00:25:39.166Z,1019.05
2016-03-11T00:26:39.216Z,1019.05
2016-03-11T00:27:39.266Z,1019.06
2016-03-11T00:28:39.315Z,1019.07
2016-03-11T00:29:39.365Z,1019.03
2016-03-11T00:30:39.415Z,1019
2016-03-11T00:31:39.464Z,1019.05
2016-03-11T00:32:39.529Z,1019.03
2016-03-11T00:33:39.563Z,1019.06
2016-03-11T00:34:39.612Z,1019.07
2016-03-11T00:35:39.679Z,1019.04
2016-03-11T00:36:39.713Z,1019.07
2016-03-11T00:37:39.778Z,1019.11
2016-03-11T00:38:39.827Z,1019.06
2016-03-11T00:39:39.876Z,1019.13
2016-03-11T00:40:39.926Z,1019.07
2016-03-11T00:41:39.976Z,1019.1
2016-03-11T00:42:40.025Z,1019.09
2016-03-11T00:43:40.090Z,1019.09
2016-03-11T00:44:40.140Z,1019.08
2016-03-11T00:45:40.174Z,1019.06
2016-03-11T00:46:40.239Z,1019.11
2016-03-11T00:47:40.289Z,1019.07
2016-03-11T00:48:40.338Z,1019.1
2016-03-11T00:49:40.388Z,1019.08
2016-03-11T00:50:40.438Z,1019.09
2016-03-11T00:51:40.487Z,1019.09
2016-03-11T00:52:40.537Z,1019.08
2016-03-11T00:53:40.603Z,1019.08
2016-03-11T00:54:40.636Z,1019.06
2016-03-11T00:55:40.702Z,1019.07
2016-03-11T00:56:40.736Z,1019.07
2016-03-11T00:57:40.800Z,1019.09
2016-03-11T00:58:40.850Z,1019.06
2016-03-11T00:59:40.900Z,1019.1
2016-03-11T01:00:40.949Z,1019.04
2016-03-11T01:01:40.999Z,1019.07
2016-03-11T01:02:41.049Z,1019.09
2016-03-11T01:03:41.099Z,1019.08
2016-03-11T01:04:41.163Z,1019.1
2016-03-11T01:05:41.197Z,1019.08
2016-03-11T01:06:41.277Z,1019.06
2016-03-11T01:07:41.312Z,1019.09
2016-03-11T01:08:41.362Z,1019.06
2016-03-11T01:09:41.410Z,1019.07
2016-03-11T01:10:41.460Z,1019.07
2016-03-11T01:11:41.526Z,1019.06
2016-03-11T01:12:41.559Z,1019.09
2016-03-11T01:13:41.625Z,1019.09
2016-03-11T01:14:41.674Z,1019.12
2016-03-11T01:15:41.709Z,1019.12
2016-03-11T01:16:41.758Z,1019.08
2016-03-11T01:17:41.823Z,1019.09
2016-03-11T01:18:41.873Z,1019.07
2016-03-11T01:19:41.923Z,1019.11
2016-03-11T01:20:41.973Z,1019.05
2016-03-11T01:21:42.022Z,1019.07
2016-03-11T01:22:42.070Z,1019.03
2016-03-11T01:23:42.120Z,1019.06
2016-03-11T01:24:42.170Z,1019.04
2016-03-11T01:25:42.236Z,1019.07
2016-03-11T01:26:42.270Z,1019.05
2016-03-11T01:27:42.320Z,1019.04
2016-03-11T01:28:42.384Z,1019.08
2016-03-11T01:29:42.434Z,1019.08
2016-03-11T01:30:42.484Z,1019.08
2016-03-11T01:31:42.533Z,1019.06
2016-03-11T01:32:42.583Z,1019.09
2016-03-11T01:33:42.633Z,1019.05
2016-03-11T01:34:42.682Z,1019.07
2016-03-11T01:35:42.731Z,1019.04
2016-03-11T01:36:42.797Z,1019.05
2016-03-11T01:37:42.830Z,1019.09
2016-03-11T01:38:42.881Z,1019.08
2016-03-11T01:39:42.946Z,1019.07
2016-03-11T01:40:42.994Z,1019.06
2016-03-11T01:41:43.044Z,1019.08
2016-03-11T01:42:43.093Z,1019.08
2016-03-11T01:43:43.160Z,1019.07
2016-03-11T01:44:43.194Z,1019.07
2016-03-11T01:45:43.258Z,1019.09
2016-03-11T01:46:43.293Z,1019.09
2016-03-11T01:47:43.357Z,1019.08
2016-03-11T01:48:43.407Z,1019.11
2016-03-11T01:49:43.456Z,1019.09
2016-03-11T01:50:43.522Z,1019.11
2016-03-11T01:51:43.556Z,1019.09
2016-03-11T01:52:43.606Z,1019.11
2016-03-11T01:53:43.670Z,1019.1
2016-03-11T01:54:43.720Z,1019.1
2016-03-11T01:55:43.753Z,1019.14
2016-03-11T01:56:43.820Z,1019.19
2016-03-11T01:57:43.869Z,1019.16
2016-03-11T01:58:43.914Z,1019.16
2016-03-11T01:59:43.953Z,1019.16
2016-03-11T02:00:43.991Z,1019.18
2016-03-11T02:01:44.031Z,1019.17
2016-03-11T02:02:44.070Z,1019.19
2016-03-11T02:03:44.126Z,1019.14
2016-03-11T02:04:44.172Z,1019.14
2016-03-11T02:05:44.203Z,1019.17
2016-03-11T02:06:44.264Z,1019.19
2016-03-11T02:07:44.310Z,1019.23
2016-03-11T02:08:44.356Z,1019.2
2016-03-11T02:09:44.404Z,1019.27
2016-03-11T02:10:44.468Z,1019.26
2016-03-11T02:11:44.500Z,1019.32
2016-03-11T02:12:44.564Z,1019.32
2016-03-11T02:13:44.596Z,1019.34
2016-03-11T02:14:44.662Z,1019.35
2016-03-11T02:15:44.711Z,1019.34
2016-03-11T02:16:44.760Z,1019.36
2016-03-11T02:17:44.808Z,1019.37
2016-03-11T02:18:44.858Z,1019.41
2016-03-11T02:19:44.908Z,1019.42
2016-03-11T02:20:44.958Z,1019.41
2016-03-11T02:21:45.022Z,1019.47
2016-03-11T02:22:45.057Z,1019.44
2016-03-11T02:23:45.122Z,1019.47
2016-03-11T02:24:45.172Z,1019.48
2016-03-11T02:25:45.221Z,1019.48
2016-03-11T02:26:45.271Z,1019.48
2016-03-11T02:27:45.320Z,1019.47
2016-03-11T02:28:45.370Z,1019.45
2016-03-11T02:29:45.435Z,1019.46
2016-03-11T02:30:45.468Z,1019.43
2016-03-11T02:31:45.534Z,1019.47
2016-03-11T02:32:45.584Z,1019.48
2016-03-11T02:33:45.634Z,1019.45
2016-03-11T02:34:45.682Z,1019.4
2016-03-11T02:35:45.748Z,1019.47
2016-03-11T02:36:45.797Z,1019.49
2016-03-11T02:37:45.848Z,1019.48
2016-03-11T02:38:45.881Z,1019.49
2016-03-11T02:39:45.931Z,1019.47
2016-03-11T02:40:45.996Z,1019.46
2016-03-11T02:41:46.045Z,1019.45
2016-03-11T02:42:46.095Z,1019.44
2016-03-11T02:43:46.145Z,1019.44
2016-03-11T02:44:46.210Z,1019.43
2016-03-11T02:45:46.259Z,1019.43
2016-03-11T02:46:46.309Z,1019.41
2016-03-11T02:47:46.358Z,1019.4
2016-03-11T02:48:46.408Z,1019.43
2016-03-11T02:49:46.458Z,1019.4
2016-03-11T02:50:46.507Z,1019.4
2016-03-11T02:51:46.557Z,1019.4
2016-03-11T02:52:46.605Z,1019.39
2016-03-11T02:53:46.671Z,1019.41
2016-03-11T02:54:46.705Z,1019.38
2016-03-11T02:55:46.771Z,1019.39
2016-03-11T02:56:46.820Z,1019.36
2016-03-11T02:57:46.869Z,1019.38
2016-03-11T02:58:46.919Z,1019.39
2016-03-11T02:59:46.968Z,1019.39
2016-03-11T03:00:47.035Z,1019.41
2016-03-11T03:01:47.068Z,1019.35
2016-03-11T03:02:47.133Z,1019.37
2016-03-11T03:03:47.167Z,1019.4
2016-03-11T03:04:47.231Z,1019.39
2016-03-11T03:05:47.281Z,1019.37
2016-03-11T03:06:47.331Z,1019.43
2016-03-11T03:07:47.381Z,1019.42
2016-03-11T03:08:47.431Z,1019.43
2016-03-11T03:09:47.480Z,1019.44
2016-03-11T03:10:47.545Z,1019.43
2016-03-11T03:11:47.595Z,1019.49
2016-03-11T03:12:47.628Z,1019.46
2016-03-11T03:13:47.694Z,1019.45
2016-03-11T03:14:47.744Z,1019.46
2016-03-11T03:15:47.792Z,1019.49
2016-03-11T03:16:47.842Z,1019.54
2016-03-11T03:17:47.891Z,1019.51
2016-03-11T03:18:47.942Z,1019.55
2016-03-11T03:19:47.992Z,1019.54
2016-03-11T03:20:48.056Z,1019.56
2016-03-11T03:21:48.106Z,1019.57
2016-03-11T03:22:48.155Z,1019.58
2016-03-11T03:23:48.205Z,1019.58
2016-03-11T03:24:48.255Z,1019.6
2016-03-11T03:25:48.305Z,1019.62
2016-03-11T03:26:48.369Z,1019.61
2016-03-11T03:27:48.419Z,1019.63
2016-03-11T03:28:48.469Z,1019.65
2016-03-11T03:29:48.518Z,1019.64
2016-03-11T03:30:48.567Z,1019.66
2016-03-11T03:31:48.633Z,1019.65
2016-03-11T03:32:48.667Z,1019.67
2016-03-11T03:33:48.716Z,1019.63
2016-03-11T03:34:48.765Z,1019.62
2016-03-11T03:35:48.832Z,1019.63
2016-03-11T03:36:48.865Z,1019.63
2016-03-11T03:37:48.931Z,1019.58
2016-03-11T03:38:48.980Z,1019.59
2016-03-11T03:39:49.029Z,1019.58
2016-03-11T03:40:49.079Z,1019.63
2016-03-11T03:41:49.129Z,1019.61
2016-03-11T03:42:49.178Z,1019.64
2016-03-11T03:43:49.243Z,1019.65
2016-03-11T03:44:49.278Z,1019.63
2016-03-11T03:45:49.342Z,1019.63
2016-03-11T03:46:49.392Z,1019.66
2016-03-11T03:47:49.441Z,1019.62
2016-03-11T03:48:49.491Z,1019.68
2016-03-11T03:49:49.541Z,1019.64
2016-03-11T03:50:49.591Z,1019.65
2016-03-11T03:51:49.655Z,1019.65
2016-03-11T03:52:49.705Z,1019.7
2016-03-11T03:53:49.754Z,1019.65
2016-03-11T03:54:49.804Z,1019.63
2016-03-11T03:55:49.854Z,1019.64
2016-03-11T03:56:49.919Z,1019.65
2016-03-11T03:57:49.952Z,1019.65
2016-03-11T03:58:50.002Z,1019.65
2016-03-11T03:59:50.052Z,1019.68
2016-03-11T04:00:50.118Z,1019.62
2016-03-11T04:01:50.167Z,1019.68
2016-03-11T04:02:50.216Z,1019.65
2016-03-11T04:03:50.265Z,1019.64
2016-03-11T04:04:50.316Z,1019.67
2016-03-11T04:05:50.365Z,1019.66
2016-03-11T04:06:50.415Z,1019.69
2016-03-11T04:07:50.464Z,1019.65
2016-03-11T04:08:50.529Z,1019.67
2016-03-11T04:09:50.579Z,1019.64
2016-03-11T04:10:50.628Z,1019.58
2016-03-11T04:11:50.678Z,1019.61
2016-03-11T04:12:50.728Z,1019.57
2016-03-11T04:13:50.777Z,1019.6
2016-03-11T04:14:50.842Z,1019.61
2016-03-11T04:15:50.876Z,1019.61
2016-03-11T04:16:50.941Z,1019.65
2016-03-11T04:17:50.992Z,1019.67
2016-03-11T04:18:51.041Z,1019.68
2016-03-11T04:19:51.090Z,1019.67
2016-03-11T04:20:51.139Z,1019.71
2016-03-11T04:21:51.189Z,1019.67
2016-03-11T04:22:51.239Z,1019.72
2016-03-11T04:23:51.289Z,1019.74
2016-03-11T04:24:51.353Z,1019.78
2016-03-11T04:25:51.403Z,1019.79
2016-03-11T04:26:51.483Z,1019.8
2016-03-11T04:27:51.502Z,1019.82
2016-03-11T04:28:51.552Z,1019.87
2016-03-11T04:29:51.602Z,1019.84
2016-03-11T04:30:51.651Z,1019.85
2016-03-11T04:31:51.701Z,1019.89
2016-03-11T04:32:51.750Z,1019.84
2016-03-11T04:33:51.800Z,1019.82
2016-03-11T04:34:51.849Z,1019.84
2016-03-11T04:35:51.915Z,1019.89
2016-03-11T04:36:51.964Z,1019.85
2016-03-11T04:37:52.013Z,1019.89
2016-03-11T04:38:52.063Z,1019.91
2016-03-11T04:39:52.112Z,1019.93
2016-03-11T04:40:52.178Z,1019.92
2016-03-11T04:41:52.227Z,1019.93
2016-03-11T04:42:52.276Z,1019.91
2016-03-11T04:43:52.326Z,1019.94
2016-03-11T04:44:52.376Z,1019.96
2016-03-11T04:45:52.426Z,1019.96
2016-03-11T04:46:52.476Z,1020
2016-03-11T04:47:52.525Z,1020.03
2016-03-11T04:48:52.574Z,1019.98
2016-03-11T04:49:52.625Z,1020.01
2016-03-11T04:50:52.689Z,1019.99
2016-03-11T04:51:52.722Z,1020
2016-03-11T04:52:52.789Z,1019.99
2016-03-11T04:53:52.838Z,1020.02
2016-03-11T04:54:52.888Z,1019.96
2016-03-11T04:55:52.937Z,1019.92
2016-03-11T04:56:52.986Z,1019.92
2016-03-11T04:57:53.036Z,1019.98
2016-03-11T04:58:53.086Z,1020.01
2016-03-11T04:59:53.151Z,1020.01
2016-03-11T05:00:53.199Z,1020.06
2016-03-11T05:01:53.250Z,1020.07
2016-03-11T05:02:53.299Z,1020.11
2016-03-11T05:03:53.349Z,1020.11
2016-03-11T05:04:53.398Z,1020.13
2016-03-11T05:05:53.449Z,1020.16
2016-03-11T05:06:53.504Z,1020.16
2016-03-11T05:07:53.553Z,1020.16
2016-03-11T05:08:53.603Z,1020.19
2016-03-11T05:09:53.652Z,1020.18
2016-03-11T05:10:53.733Z,1020.23
2016-03-11T05:11:53.767Z,1020.22
2016-03-11T05:12:53.816Z,1020.21
2016-03-11T05:13:53.865Z,1020.23
2016-03-11T05:14:53.916Z,1020.2
2016-03-11T05:15:53.981Z,1020.21
2016-03-11T05:16:54.015Z,1020.21
2016-03-11T05:17:54.065Z,1020.22
2016-03-11T05:18:54.129Z,1020.26
2016-03-11T05:19:54.179Z,1020.26
2016-03-11T05:20:54.212Z,1020.29
2016-03-11T05:21:54.278Z,1020.3
2016-03-11T05:22:54.328Z,1020.35
2016-03-11T05:23:54.378Z,1020.31
2016-03-11T05:24:54.427Z,1020.33
2016-03-11T05:25:54.476Z,1020.38
2016-03-11T05:26:54.542Z,1020.32
2016-03-11T05:27:54.592Z,1020.36
2016-03-11T05:28:54.641Z,1020.37
2016-03-11T05:29:54.691Z,1020.42
2016-03-11T05:30:54.739Z,1020.42
2016-03-11T05:31:54.790Z,1020.39
2016-03-11T05:32:54.839Z,1020.44
2016-03-11T05:33:54.889Z,1020.45
2016-03-11T05:34:54.938Z,1020.42
2016-03-11T05:35:54.988Z,1020.46
2016-03-11T05:36:55.053Z,1020.44
2016-03-11T05:37:55.102Z,1020.42
2016-03-11T05:38:55.152Z,1020.46
2016-03-11T05:39:55.201Z,1020.46
2016-03-11T05:40:55.252Z,1020.46
2016-03-11T05:41:55.301Z,1020.48
2016-03-11T05:42:55.351Z,1020.47
2016-03-11T05:43:55.400Z,1020.46
2016-03-11T05:44:55.449Z,1020.47
2016-03-11T05:45:55.515Z,1020.48
2016-03-11T05:46:55.564Z,1020.53
2016-03-11T05:47:55.615Z,1020.53
2016-03-11T05:48:55.663Z,1020.52
2016-03-11T05:49:55.713Z,1020.55
2016-03-11T05:50:55.762Z,1020.52
2016-03-11T05:51:55.812Z,1020.53
2016-03-11T05:52:55.878Z,1020.5
2016-03-11T05:53:55.926Z,1020.53
2016-03-11T05:54:55.976Z,1020.54
2016-03-11T05:55:56.025Z,1020.53
2016-03-11T05:56:56.076Z,1020.55
2016-03-11T05:57:56.125Z,1020.56
2016-03-11T05:58:56.175Z,1020.59
2016-03-11T05:59:56.224Z,1020.58
2016-03-11T06:00:56.274Z,1020.58
2016-03-11T06:01:56.323Z,1020.57
2016-03-11T06:02:56.373Z,1020.61
2016-03-11T06:03:56.438Z,1020.62
2016-03-11T06:04:56.488Z,1020.64
2016-03-11T06:05:56.538Z,1020.68
2016-03-11T06:06:56.587Z,1020.67
2016-03-11T06:07:56.636Z,1020.71
2016-03-11T06:08:56.686Z,1020.71
2016-03-11T06:09:56.735Z,1020.72
2016-03-11T06:10:56.785Z,1020.76
2016-03-11T06:11:56.835Z,1020.72
2016-03-11T06:12:56.899Z,1020.77
2016-03-11T06:13:56.950Z,1020.74
2016-03-11T06:14:56.999Z,1020.78
2016-03-11T06:15:57.049Z,1020.75
2016-03-11T06:16:57.113Z,1020.84
2016-03-11T06:17:57.148Z,1020.8
2016-03-11T06:18:57.212Z,1020.8
2016-03-11T06:19:57.246Z,1020.84
2016-03-11T06:20:57.328Z,1020.8
2016-03-11T06:21:57.362Z,1020.81
2016-03-11T06:22:57.412Z,1020.83
2016-03-11T06:23:57.476Z,1020.81
2016-03-11T06:24:57.510Z,1020.78
2016-03-11T06:25:57.575Z,1020.81
2016-03-11T06:26:57.609Z,1020.79
2016-03-11T06:27:57.675Z,1020.81
2016-03-11T06:28:57.724Z,1020.83
2016-03-11T06:29:57.773Z,1020.84
2016-03-11T06:30:57.823Z,1020.82
2016-03-11T06:31:57.873Z,1020.8
2016-03-11T06:32:57.953Z,1020.81
2016-03-11T06:33:57.972Z,1020.85
2016-03-11T06:34:58.036Z,1020.84
2016-03-11T06:35:58.086Z,1020.84
2016-03-11T06:36:58.136Z,1020.84
2016-03-11T06:37:58.170Z,1020.85
2016-03-11T06:38:58.235Z,1020.86
2016-03-11T06:39:58.269Z,1020.86
2016-03-11T06:40:58.335Z,1020.83
2016-03-11T06:41:58.399Z,1020.85
2016-03-11T06:42:58.449Z,1020.87
2016-03-11T06:43:58.482Z,1020.85
2016-03-11T06:44:58.548Z,1020.87
2016-03-11T06:45:58.598Z,1020.87
2016-03-11T06:46:58.632Z,1020.85
2016-03-11T06:47:58.681Z,1020.86
2016-03-11T06:48:58.746Z,1020.86
2016-03-11T06:49:58.795Z,1020.87
2016-03-11T06:50:58.845Z,1020.86
2016-03-11T06:51:58.911Z,1020.91
2016-03-11T06:52:58.960Z,1020.89
2016-03-11T06:53:58.995Z,1020.9
2016-03-11T06:54:59.060Z,1020.92
2016-03-11T06:55:59.093Z,1020.9
2016-03-11T06:56:59.143Z,1020.94
2016-03-11T06:57:59.193Z,1020.92
2016-03-11T06:58:59.259Z,1020.94
2016-03-11T06:59:59.308Z,1020.95
2016-03-11T07:00:59.373Z,1021
2016-03-11T07:01:59.406Z,1021.01
2016-03-11T07:02:59.472Z,1021.02
2016-03-11T07:03:59.536Z,1020.99
2016-03-11T07:04:59.571Z,1021.02
2016-03-11T07:05:59.605Z,1021.04
2016-03-11T07:06:59.670Z,1021.06
2016-03-11T07:07:59.719Z,1021.08
2016-03-11T07:08:59.769Z,1021.1
2016-03-11T07:09:59.881Z,1021.12
2016-03-11T07:10:59.868Z,1021.17
2016-03-11T07:11:59.933Z,1021.18
2016-03-11T07:12:59.983Z,1021.19
2016-03-11T07:14:00.033Z,1021.2
2016-03-11T07:15:00.082Z,1021.2
2016-03-11T07:16:00.147Z,1021.22
2016-03-11T07:17:00.181Z,1021.18
2016-03-11T07:18:00.263Z,1021.18
2016-03-11T07:19:00.280Z,1021.19
2016-03-11T07:20:00.346Z,1021.25
2016-03-11T07:21:00.379Z,1021.19
2016-03-11T07:22:00.445Z,1021.21
2016-03-11T07:23:00.479Z,1021.2
2016-03-11T07:24:00.529Z,1021.24
2016-03-11T07:25:00.578Z,1021.25
2016-03-11T07:26:00.659Z,1021.3
2016-03-11T07:27:00.676Z,1021.28
2016-03-11T07:28:00.742Z,1021.29
2016-03-11T07:29:00.792Z,1021.33
2016-03-11T07:30:00.842Z,1021.37
2016-03-11T07:31:00.906Z,1021.32
2016-03-11T07:32:00.956Z,1021.37
2016-03-11T07:33:01.006Z,1021.36
2016-03-11T07:34:01.039Z,1021.4
2016-03-11T07:35:01.089Z,1021.36
2016-03-11T07:36:01.138Z,1021.4
2016-03-11T07:37:01.203Z,1021.41
2016-03-11T07:38:01.253Z,1021.42
2016-03-11T07:39:01.303Z,1021.44
2016-03-11T07:40:01.352Z,1021.43
2016-03-11T07:41:01.402Z,1021.43
2016-03-11T07:42:01.466Z,1021.42
2016-03-11T07:43:01.517Z,1021.46
2016-03-11T07:44:01.582Z,1021.47
2016-03-11T07:45:01.616Z,1021.47
2016-03-11T07:46:01.666Z,1021.49
2016-03-11T07:47:01.715Z,1021.48
2016-03-11T07:48:01.780Z,1021.5
2016-03-11T07:49:01.829Z,1021.47
2016-03-11T07:50:01.864Z,1021.47
2016-03-11T07:51:01.929Z,1021.49
2016-03-11T07:52:01.963Z,1021.5
2016-03-11T07:53:02.012Z,1021.48
2016-03-11T07:54:02.078Z,1021.5
2016-03-11T07:55:02.111Z,1021.51
2016-03-11T07:56:02.176Z,1021.52
2016-03-11T07:57:02.211Z,1021.55
2016-03-11T07:58:02.276Z,1021.56
2016-03-11T07:59:02.325Z,1021.57
2016-03-11T08:00:02.375Z,1021.58
2016-03-11T08:01:02.425Z,1021.58
2016-03-11T08:02:02.474Z,1021.57
2016-03-11T08:03:02.524Z,1021.58
2016-03-11T08:04:02.589Z,1021.62
2016-03-11T08:05:02.639Z,1021.63
2016-03-11T08:06:02.672Z,1021.65
2016-03-11T08:07:02.738Z,1021.65
2016-03-11T08:08:02.787Z,1021.66
2016-03-11T08:09:02.837Z,1021.67
2016-03-11T08:10:02.902Z,1021.67
2016-03-11T08:11:02.936Z,1021.72
2016-03-11T08:12:02.986Z,1021.75
2016-03-11T08:13:03.036Z,1021.77
2016-03-11T08:14:03.085Z,1021.78
2016-03-11T08:15:03.166Z,1021.8
2016-03-11T08:16:03.200Z,1021.82
2016-03-11T08:17:03.233Z,1021.83
2016-03-11T08:18:03.314Z,1021.85
2016-03-11T08:19:03.364Z,1021.85
2016-03-11T08:20:03.398Z,1021.79
2016-03-11T08:21:03.463Z,1021.84
2016-03-11T08:22:03.513Z,1021.82
2016-03-11T08:23:03.577Z,1021.83
2016-03-11T08:24:03.612Z,1021.8
2016-03-11T08:25:03.661Z,1021.8
2016-03-11T08:26:03.710Z,1021.8
2016-03-11T08:27:03.776Z,1021.82
2016-03-11T08:28:03.809Z,1021.83
2016-03-11T08:29:03.859Z,1021.85
2016-03-11T08:30:03.925Z,1021.85
2016-03-11T08:31:03.974Z,1021.86
2016-03-11T08:32:04.023Z,1021.89
2016-03-11T08:33:04.073Z,1021.89
2016-03-11T08:34:04.107Z,1021.88
2016-03-11T08:35:04.188Z,1021.89
2016-03-11T08:36:04.222Z,1021.87
2016-03-11T08:37:04.271Z,1021.88
2016-03-11T08:38:04.322Z,1021.9
2016-03-11T08:39:04.370Z,1021.95
2016-03-11T08:40:04.436Z,1021.94
2016-03-11T08:41:04.486Z,1021.96
2016-03-11T08:42:04.535Z,1021.97
2016-03-11T08:43:04.585Z,1021.96
2016-03-11T08:44:04.618Z,1022
2016-03-11T08:45:04.668Z,1022.05
2016-03-11T08:46:04.749Z,1022
2016-03-11T08:47:04.798Z,1022.03
2016-03-11T08:48:04.832Z,1022.04
2016-03-11T08:49:04.882Z,1022.05
2016-03-11T08:50:04.932Z,1022.06
2016-03-11T08:51:04.982Z,1022.03
2016-03-11T08:52:05.046Z,1022.02
2016-03-11T08:53:05.080Z,1022.06
2016-03-11T08:54:05.129Z,1022.06
2016-03-11T08:55:05.179Z,1022.04
2016-03-11T08:56:05.245Z,1022.03
2016-03-11T08:57:05.278Z,1022.06
2016-03-11T08:58:05.343Z,1022.09
2016-03-11T08:59:05.393Z,1022.07
2016-03-11T09:00:05.443Z,1022.07
2016-03-11T09:01:05.492Z,1022.09
2016-03-11T09:02:05.541Z,1022.11
2016-03-11T09:03:05.607Z,1022.08
2016-03-11T09:04:05.656Z,1022.11
2016-03-11T09:05:05.689Z,1022.1
2016-03-11T09:06:05.755Z,1022.08
2016-03-11T09:07:05.805Z,1022.13
2016-03-11T09:08:05.855Z,1022.09
2016-03-11T09:09:05.904Z,1022.12
2016-03-11T09:10:05.969Z,1022.13
2016-03-11T09:11:06.003Z,1022.11
2016-03-11T09:12:06.069Z,1022.16
2016-03-11T09:13:06.118Z,1022.18
2016-03-11T09:14:06.152Z,1022.13
2016-03-11T09:15:06.217Z,1022.15
2016-03-11T09:16:06.267Z,1022.18
2016-03-11T09:17:06.332Z,1022.2
2016-03-11T09:18:06.366Z,1022.18
2016-03-11T09:19:06.415Z,1022.17
2016-03-11T09:20:06.465Z,1022.21
2016-03-11T09:21:06.530Z,1022.28
2016-03-11T09:22:06.564Z,1022.25
2016-03-11T09:23:06.629Z,1022.26
2016-03-11T09:24:06.679Z,1022.31
2016-03-11T09:25:06.729Z,1022.26
2016-03-11T09:26:06.778Z,1022.29
2016-03-11T09:27:06.828Z,1022.24
2016-03-11T09:28:06.877Z,1022.29
2016-03-11T09:29:06.927Z,1022.24
2016-03-11T09:30:06.992Z,1022.26
2016-03-11T09:31:07.026Z,1022.28
2016-03-11T09:32:07.092Z,1022.26
2016-03-11T09:33:07.140Z,1022.24
2016-03-11T09:34:07.189Z,1022.25
2016-03-11T09:35:07.240Z,1022.21
2016-03-11T09:36:07.273Z,1022.25
2016-03-11T09:37:07.339Z,1022.24
2016-03-11T09:38:07.373Z,1022.28
2016-03-11T09:39:07.439Z,1022.28
2016-03-11T09:40:07.472Z,1022.31
2016-03-11T09:41:07.522Z,1022.27
2016-03-11T09:42:07.586Z,1022.27
2016-03-11T09:43:07.636Z,1022.32
2016-03-11T09:44:07.670Z,1022.31
2016-03-11T09:45:07.751Z,1022.32
2016-03-11T09:46:07.785Z,1022.35
2016-03-11T09:47:07.850Z,1022.29
2016-03-11T09:48:07.899Z,1022.34
2016-03-11T09:49:07.933Z,1022.36
2016-03-11T09:50:07.998Z,1022.34
2016-03-11T09:51:08.049Z,1022.28
2016-03-11T09:52:08.099Z,1022.29
2016-03-11T09:53:08.148Z,1022.3
2016-03-11T09:54:08.197Z,1022.34
2016-03-11T09:55:08.247Z,1022.37
2016-03-11T09:56:08.281Z,1022.37
2016-03-11T09:57:08.345Z,1022.33
2016-03-11T09:58:08.396Z,1022.37
2016-03-11T09:59:08.460Z,1022.33
2016-03-11T10:00:08.495Z,1022.33
2016-03-11T10:01:08.559Z,1022.32
2016-03-11T10:02:08.593Z,1022.3
2016-03-11T10:03:08.643Z,1022.29
2016-03-11T10:04:08.692Z,1022.32
2016-03-11T10:05:08.742Z,1022.33
2016-03-11T10:06:08.792Z,1022.3
2016-03-11T10:07:08.848Z,1022.32
2016-03-11T10:08:08.897Z,1022.31
2016-03-11T10:09:08.931Z,1022.31
2016-03-11T10:10:09.012Z,1022.32
2016-03-11T10:11:09.358Z,1022.33
2016-03-11T10:12:09.642Z,1022.34
2016-03-11T10:13:09.816Z,1022.34
2016-03-11T10:14:09.210Z,1022.35
2016-03-11T10:15:09.525Z,1022.33
2016-03-11T10:16:09.277Z,1022.36
2016-03-11T10:17:09.562Z,1022.31
2016-03-11T10:18:09.378Z,1022.33
2016-03-11T10:19:09.864Z,1022.31
2016-03-11T10:20:09.725Z,1022.33
2016-03-11T10:21:09.995Z,1022.32
2016-03-11T10:22:10.044Z,1022.31
2016-03-11T10:23:10.249Z,1022.28
2016-03-11T10:24:09.674Z,1022.3
2016-03-11T10:25:09.739Z,1022.27
2016-03-11T10:26:09.789Z,1022.25
2016-03-11T10:27:09.838Z,1022.2
2016-03-11T10:28:09.888Z,1022.21
2016-03-11T10:29:09.937Z,1022.22
2016-03-11T10:30:09.987Z,1022.21
2016-03-11T10:31:10.037Z,1022.2
2016-03-11T10:32:10.086Z,1022.23
2016-03-11T10:33:10.136Z,1022.23
2016-03-11T10:34:10.185Z,1022.21
2016-03-11T10:35:10.235Z,1022.19
2016-03-11T10:36:10.284Z,1022.22
2016-03-11T10:37:10.350Z,1022.21
2016-03-11T10:38:10.384Z,1022.19
2016-03-11T10:39:10.433Z,1022.19
2016-03-11T10:40:10.484Z,1022.22
2016-03-11T10:41:10.532Z,1022.22
2016-03-11T10:42:10.597Z,1022.22
2016-03-11T10:43:10.647Z,1022.25
2016-03-11T10:44:10.681Z,1022.23
2016-03-11T10:45:10.747Z,1022.18
2016-03-11T10:46:10.795Z,1022.21
2016-03-11T10:47:10.846Z,1022.18
2016-03-11T10:48:10.895Z,1022.21
2016-03-11T10:49:10.944Z,1022.24
2016-03-11T10:50:10.994Z,1022.21
2016-03-11T10:51:11.044Z,1022.25
2016-03-11T10:52:11.094Z,1022.28
2016-03-11T10:53:11.143Z,1022.25
2016-03-11T10:54:11.192Z,1022.25
2016-03-11T10:55:11.242Z,1022.32
2016-03-11T10:56:11.291Z,1022.28
2016-03-11T10:57:11.357Z,1022.29
2016-03-11T10:58:11.406Z,1022.27
2016-03-11T10:59:11.441Z,1022.29
2016-03-11T11:00:11.490Z,1022.32
2016-03-11T11:01:11.540Z,1022.25
2016-03-11T11:02:11.604Z,1022.28
2016-03-11T11:03:11.654Z,1022.29
2016-03-11T11:04:11.704Z,1022.24
2016-03-11T11:05:11.746Z,1022.29
2016-03-11T11:06:11.781Z,1022.31
2016-03-11T11:07:11.815Z,1022.31
2016-03-11T11:08:11.850Z,1022.34
2016-03-11T11:09:11.900Z,1022.33
2016-03-11T11:10:11.955Z,1022.38
2016-03-11T11:11:11.968Z,1022.36
2016-03-11T11:12:12.012Z,1022.38
2016-03-11T11:13:12.057Z,1022.41
2016-03-11T11:14:12.101Z,1022.37
2016-03-11T11:15:12.146Z,1022.35
2016-03-11T11:16:12.210Z,1022.38
2016-03-11T11:17:12.257Z,1022.39
2016-03-11T11:18:12.305Z,1022.37
2016-03-11T11:19:12.353Z,1022.38
2016-03-11T11:20:12.400Z,1022.38
2016-03-11T11:21:12.449Z,1022.39
2016-03-11T11:22:12.498Z,1022.35
2016-03-11T11:23:12.703Z,1022.28
2016-03-11T11:24:12.596Z,1022.3
2016-03-11T11:25:12.645Z,1022.32
2016-03-11T11:26:12.695Z,1022.3
2016-03-11T11:27:12.743Z,1022.28
2016-03-11T11:28:12.791Z,1022.27
2016-03-11T11:29:12.841Z,1022.3
2016-03-11T11:30:12.890Z,1022.31
2016-03-11T11:31:12.941Z,1022.34
2016-03-11T11:32:13.006Z,1022.26
2016-03-11T11:33:13.054Z,1022.32
2016-03-11T11:34:13.105Z,1022.35
2016-03-11T11:35:13.154Z,1022.27
2016-03-11T11:36:13.203Z,1022.29
2016-03-11T11:37:13.254Z,1022.35
2016-03-11T11:38:13.303Z,1022.29
2016-03-11T11:39:13.353Z,1022.29
2016-03-11T11:40:13.402Z,1022.33
2016-03-11T11:41:13.451Z,1022.35
2016-03-11T11:42:13.501Z,1022.34
2016-03-11T11:43:13.550Z,1022.32
2016-03-11T11:44:13.616Z,1022.35
2016-03-11T11:45:13.650Z,1022.32
2016-03-11T11:46:13.714Z,1022.36
2016-03-11T11:47:13.764Z,1022.32
2016-03-11T11:48:13.799Z,1022.35
2016-03-11T11:49:13.863Z,1022.33
2016-03-11T11:50:13.913Z,1022.28
2016-03-11T11:51:13.963Z,1022.27
2016-03-11T11:52:14.013Z,1022.31
2016-03-11T11:53:14.062Z,1022.29
2016-03-11T11:54:14.111Z,1022.29
2016-03-11T11:55:14.193Z,1022.34
2016-03-11T11:56:14.211Z,1022.29
2016-03-11T11:57:14.260Z,1022.31
2016-03-11T11:58:14.326Z,1022.3
2016-03-11T11:59:14.360Z,1022.28
2016-03-11T12:00:14.424Z,1022.32
2016-03-11T12:01:14.474Z,1022.3
2016-03-11T12:02:14.524Z,1022.35
2016-03-11T12:03:14.574Z,1022.32
2016-03-11T12:04:14.623Z,1022.31
2016-03-11T12:05:14.673Z,1022.34
2016-03-11T12:06:14.722Z,1022.29
2016-03-11T12:07:14.771Z,1022.36
2016-03-11T12:08:14.821Z,1022.35
2016-03-11T12:09:14.870Z,1022.32